Time,TemperatureF,DewpointF,PressureIn,WindDirection,WindDirectionDegrees,WindSpeedMPH,WindSpeedGustMPH,Humidity,HourlyPrecipIn,Conditions,Clouds,dailyrainin,SoftwareType,DateUTC
2013-10-20 00:01:00,51.6,47.0,29.94,NNE,22,0.0,0.0,84,0.00,,CLR,0.02,VWS V12.08,2013-10-20 04:01:00,
2013-10-20 00:02:00,51.6,47.0,29.94,NNE,22,0.0,0.0,84,0.00,,CLR,0.02,VWS V12.08,2013-10-20 04:02:00,
2013-10-20 00:03:00,51.6,47.0,29.94,NNE,22,0.0,0.0,84,0.00,,CLR,0.02,VWS V12.08,2013-10-20 04:03:00,
2013-10-20 00:04:00,51.6,47.0,29.94,NNE,22,0.0,0.0,84,0.00,,CLR,0.02,VWS V12.08,2013-10-20 04:04:00,
2013-10-20 00:06:00,51.4,46.8,29.94,NNE,22,0.0,0.0,84,0.00,,CLR,0.02,VWS V12.08,2013-10-20 04:06:00,
2013-10-20 00:11:00,51.4,46.8,29.94,North,0,0.0,0.0,84,0.00,,CLR,0.02,VWS V12.08,2013-10-20 04:11:00,
2013-10-20 00:16:00,51.1,46.4,29.94,NNE,22,0.0,0.0,84,0.00,,CLR,0.02,VWS V12.08,2013-10-20 04:16:00,
2013-10-20 00:21:00,50.9,46.2,29.94,North,0,0.0,0.0,84,0.00,,CLR,0.02,VWS V12.08,2013-10-20 04:21:00,
2013-10-20 00:26:00,50.9,46.2,29.94,North,0,0.0,0.0,84,0.00,,CLR,0.02,VWS V12.08,2013-10-20 04:26:00,
2013-10-20 00:31:00,50.7,46.1,29.94,North,0,0.0,0.0,84,0.00,,CLR,0.02,VWS V12.08,2013-10-20 04:31:00,
2013-10-20 00:36:00,50.7,46.1,29.94,North,0,0.0,0.0,84,0.00,,CLR,0.02,VWS V12.08,2013-10-20 04:36:00,
2013-10-20 00:41:00,50.5,45.9,29.94,NNE,22,0.0,0.0,84,0.00,,CLR,0.02,VWS V12.08,2013-10-20 04:41:00,
2013-10-20 00:46:00,50.5,45.9,29.94,NNE,22,0.0,0.0,84,0.00,,CLR,0.02,VWS V12.08,2013-10-20 04:46:00,
2013-10-20 00:51:00,50.4,45.7,29.94,NNE,22,0.0,0.0,84,0.00,,CLR,0.02,VWS V12.08,2013-10-20 04:51:00,
2013-10-20 00:56:00,50.2,45.5,29.94,NNE,22,0.0,0.0,84,0.00,,CLR,0.02,VWS V12.08,2013-10-20 04:56:00,
2013-10-20 01:01:00,50.2,45.5,29.94,NNE,22,0.0,0.0,84,0.00,,CLR,0.02,VWS V12.08,2013-10-20 05:01:00,
2013-10-20 01:06:00,50.2,45.5,29.94,North,0,0.0,0.0,84,0.00,,CLR,0.02,VWS V12.08,2013-10-20 05:06:00,
2013-10-20 01:11:00,50.2,45.5,29.95,North,0,0.0,0.0,84,0.00,,CLR,0.02,VWS V12.08,2013-10-20 05:11:00,
2013-10-20 01:16:00,49.8,45.2,29.94,North,0,0.0,0.0,84,0.00,,CLR,0.02,VWS V12.08,2013-10-20 05:16:00,
2013-10-20 01:21:00,49.8,45.2,29.94,North,0,0.0,0.0,84,0.00,,CLR,0.02,VWS V12.08,2013-10-20 05:21:00,
2013-10-20 01:26:00,49.3,44.7,29.95,NNE,22,0.0,0.0,84,0.00,,CLR,0.02,VWS V12.08,2013-10-20 05:26:00,
2013-10-20 01:31:00,49.3,44.7,29.95,NNE,22,0.0,0.0,84,0.00,,CLR,0.02,VWS V12.08,2013-10-20 05:31:00,
2013-10-20 01:36:00,49.3,44.7,29.95,North,0,0.0,0.0,84,0.00,,CLR,0.02,VWS V12.08,2013-10-20 05:36:00,
2013-10-20 01:41:00,49.3,44.7,29.95,North,0,0.0,0.0,84,0.00,,CLR,0.02,VWS V12.08,2013-10-20 05:41:00,
2013-10-20 01:46:00,49.3,44.7,29.95,North,0,0.0,0.0,84,0.00,,CLR,0.02,VWS V12.08,2013-10-20 05:46:00,
2013-10-20 01:51:00,49.3,44.7,29.95,North,0,0.0,0.0,84,0.00,,CLR,0.02,VWS V12.08,2013-10-20 05:51:00,
2013-10-20 01:56:00,49.3,44.7,29.95,North,0,0.0,0.0,84,0.00,,CLR,0.02,VWS V12.08,2013-10-20 05:56:00,
2013-10-20 02:01:00,49.1,44.5,29.96,North,0,0.0,0.0,84,0.00,,CLR,0.02,VWS V12.08,2013-10-20 06:01:00,
2013-10-20 02:06:00,49.1,44.5,29.96,North,0,0.0,0.0,84,0.00,,CLR,0.02,VWS V12.08,2013-10-20 06:06:00,
2013-10-20 02:11:00,48.9,44.3,29.96,NNE,22,0.0,0.0,84,0.00,,CLR,0.02,VWS V12.08,2013-10-20 06:11:00,
2013-10-20 02:16:00,48.9,44.3,29.96,NNE,22,0.0,0.0,84,0.00,,CLR,0.02,VWS V12.08,2013-10-20 06:16:00,
2013-10-20 02:21:00,48.9,44.3,29.96,NNE,22,0.0,0.0,84,0.00,,CLR,0.02,VWS V12.08,2013-10-20 06:21:00,
2013-10-20 02:26:00,48.7,44.1,29.96,NNE,22,0.0,0.0,84,0.00,,CLR,0.02,VWS V12.08,2013-10-20 06:26:00,
2013-10-20 02:31:00,48.7,44.1,29.97,NNE,22,0.0,0.0,84,0.00,,CLR,0.02,VWS V12.08,2013-10-20 06:31:00,
2013-10-20 02:36:00,48.6,44.0,29.97,North,0,0.0,0.0,84,0.00,,CLR,0.02,VWS V12.08,2013-10-20 06:36:00,
2013-10-20 02:41:00,48.0,43.4,29.97,North,0,0.0,0.0,84,0.00,,CLR,0.02,VWS V12.08,2013-10-20 06:41:00,
2013-10-20 02:46:00,48.0,43.4,29.97,NNE,22,0.0,0.0,84,0.00,,CLR,0.02,VWS V12.08,2013-10-20 06:46:00,
2013-10-20 02:51:00,48.0,43.4,29.97,NNE,22,0.0,0.0,84,0.00,,CLR,0.02,VWS V12.08,2013-10-20 06:51:00,
2013-10-20 02:56:00,48.0,43.4,29.97,NNE,22,0.0,0.0,84,0.00,,CLR,0.02,VWS V12.08,2013-10-20 06:56:00,
2013-10-20 03:01:00,48.0,43.4,29.97,NNE,22,0.0,0.0,84,0.00,,CLR,0.02,VWS V12.08,2013-10-20 07:01:00,
2013-10-20 03:06:00,47.8,43.2,29.97,North,0,0.0,0.0,84,0.00,,CLR,0.02,VWS V12.08,2013-10-20 07:06:00,
2013-10-20 03:11:00,47.8,43.2,29.97,NW,315,0.0,0.0,84,0.00,,CLR,0.02,VWS V12.08,2013-10-20 07:11:00,
2013-10-20 03:16:00,47.7,43.1,29.97,West,270,0.0,0.0,84,0.00,,CLR,0.02,VWS V12.08,2013-10-20 07:16:00,
2013-10-20 03:21:00,47.5,42.9,29.97,West,270,0.0,0.0,84,0.00,,CLR,0.02,VWS V12.08,2013-10-20 07:21:00,
2013-10-20 03:26:00,47.5,42.6,29.97,West,270,0.0,0.0,83,0.00,,CLR,0.02,VWS V12.08,2013-10-20 07:26:00,
2013-10-20 03:31:00,47.5,42.6,29.97,West,270,0.0,0.0,83,0.00,,CLR,0.02,VWS V12.08,2013-10-20 07:31:00,
2013-10-20 03:36:00,47.3,42.4,29.97,West,270,0.0,0.0,83,0.00,,CLR,0.02,VWS V12.08,2013-10-20 07:36:00,
2013-10-20 03:41:00,47.3,42.4,29.97,West,270,0.0,0.0,83,0.00,,CLR,0.02,VWS V12.08,2013-10-20 07:41:00,
2013-10-20 03:46:00,47.3,42.1,29.97,West,270,0.0,0.0,82,0.00,,CLR,0.02,VWS V12.08,2013-10-20 07:46:00,
2013-10-20 03:51:00,47.1,41.9,29.97,West,270,0.0,0.0,82,0.00,,CLR,0.02,VWS V12.08,2013-10-20 07:51:00,
2013-10-20 03:56:00,47.1,41.9,29.97,West,270,0.0,0.0,82,0.00,,CLR,0.02,VWS V12.08,2013-10-20 07:56:00,
2013-10-20 04:01:00,46.6,41.4,29.97,West,270,0.0,0.0,82,0.00,,CLR,0.02,VWS V12.08,2013-10-20 08:01:00,
2013-10-20 04:06:00,46.6,41.4,29.97,West,270,0.0,0.0,82,0.00,,CLR,0.02,VWS V12.08,2013-10-20 08:06:00,
2013-10-20 04:11:00,46.6,41.7,29.97,West,270,0.0,0.0,83,0.00,,CLR,0.02,VWS V12.08,2013-10-20 08:11:00,
2013-10-20 04:16:00,46.6,41.7,29.97,West,270,0.0,0.0,83,0.00,,CLR,0.02,VWS V12.08,2013-10-20 08:16:00,
2013-10-20 04:21:00,46.6,41.7,29.97,West,270,0.0,0.0,83,0.00,,CLR,0.02,VWS V12.08,2013-10-20 08:21:00,
2013-10-20 04:26:00,46.4,41.5,29.97,West,270,0.0,0.0,83,0.00,,CLR,0.02,VWS V12.08,2013-10-20 08:26:00,
2013-10-20 04:31:00,46.4,41.5,29.98,West,270,0.0,0.0,83,0.00,,CLR,0.02,VWS V12.08,2013-10-20 08:31:00,
2013-10-20 04:36:00,46.2,41.3,29.98,West,270,0.0,0.0,83,0.00,,CLR,0.02,VWS V12.08,2013-10-20 08:36:00,
2013-10-20 04:41:00,46.2,41.3,29.98,West,270,0.0,0.0,83,0.00,,CLR,0.02,VWS V12.08,2013-10-20 08:41:00,
2013-10-20 04:46:00,46.0,41.2,29.98,West,270,0.0,0.0,83,0.00,,CLR,0.02,VWS V12.08,2013-10-20 08:46:00,
2013-10-20 04:51:00,46.0,41.2,29.98,West,270,0.0,0.0,83,0.00,,CLR,0.02,VWS V12.08,2013-10-20 08:51:00,
2013-10-20 04:56:00,46.0,41.2,29.98,SW,225,0.0,0.0,83,0.00,,CLR,0.02,VWS V12.08,2013-10-20 08:56:00,
2013-10-20 05:01:00,46.0,41.2,29.98,SW,225,0.0,0.0,83,0.00,,CLR,0.02,VWS V12.08,2013-10-20 09:01:00,
2013-10-20 05:06:00,46.0,41.2,29.98,SW,225,0.0,0.0,83,0.00,,CLR,0.02,VWS V12.08,2013-10-20 09:06:00,
2013-10-20 05:11:00,46.0,41.2,29.98,SW,225,0.0,0.0,83,0.00,,CLR,0.02,VWS V12.08,2013-10-20 09:11:00,
2013-10-20 05:16:00,46.0,41.2,29.98,WSW,248,0.0,0.0,83,0.00,,CLR,0.02,VWS V12.08,2013-10-20 09:16:00,
2013-10-20 05:21:00,46.0,41.2,29.98,WSW,248,0.0,0.0,83,0.00,,CLR,0.02,VWS V12.08,2013-10-20 09:21:00,
2013-10-20 05:26:00,45.7,40.5,29.98,NW,315,0.0,0.0,82,0.00,,CLR,0.02,VWS V12.08,2013-10-20 09:26:00,
2013-10-20 05:31:00,45.7,40.5,29.98,NW,315,0.0,0.0,82,0.00,,CLR,0.02,VWS V12.08,2013-10-20 09:31:00,
2013-10-20 05:36:00,45.7,40.5,29.98,NW,315,0.0,0.0,82,0.00,,CLR,0.02,VWS V12.08,2013-10-20 09:36:00,
2013-10-20 05:41:00,45.7,40.5,29.99,NW,315,0.0,0.0,82,0.00,,CLR,0.02,VWS V12.08,2013-10-20 09:41:00,
2013-10-20 05:46:00,45.7,40.5,29.99,WNW,292,0.0,0.0,82,0.00,,CLR,0.02,VWS V12.08,2013-10-20 09:46:00,
2013-10-20 05:51:00,45.7,40.5,29.99,WNW,292,0.0,0.0,82,0.00,,CLR,0.02,VWS V12.08,2013-10-20 09:51:00,
2013-10-20 05:56:00,45.7,40.5,29.99,WNW,292,0.0,0.0,82,0.00,,CLR,0.02,VWS V12.08,2013-10-20 09:56:00,
2013-10-20 06:01:00,45.7,40.2,29.99,West,270,0.0,0.0,81,0.00,,CLR,0.02,VWS V12.08,2013-10-20 10:01:00,
2013-10-20 06:06:00,45.7,40.2,29.99,WNW,292,0.0,0.0,81,0.00,,CLR,0.02,VWS V12.08,2013-10-20 10:06:00,
2013-10-20 06:11:00,45.7,40.2,29.99,West,270,0.0,0.0,81,0.00,,CLR,0.02,VWS V12.08,2013-10-20 10:11:00,
2013-10-20 06:16:00,45.5,40.0,29.99,West,270,0.0,0.0,81,0.00,,CLR,0.02,VWS V12.08,2013-10-20 10:16:00,
2013-10-20 06:21:00,45.5,40.0,30.00,West,270,0.0,0.0,81,0.00,,CLR,0.02,VWS V12.08,2013-10-20 10:21:00,
2013-10-20 06:26:00,45.3,39.8,29.99,West,270,0.0,0.0,81,0.00,,CLR,0.02,VWS V12.08,2013-10-20 10:26:00,
2013-10-20 06:31:00,45.3,39.8,29.99,WSW,248,0.0,0.0,81,0.00,,CLR,0.02,VWS V12.08,2013-10-20 10:31:00,
2013-10-20 06:36:00,45.3,39.8,30.00,SSE,158,0.0,0.0,81,0.00,,CLR,0.02,VWS V12.08,2013-10-20 10:36:00,
2013-10-20 06:41:00,45.3,39.8,30.00,SSE,158,0.0,0.0,81,0.00,,CLR,0.02,VWS V12.08,2013-10-20 10:41:00,
2013-10-20 06:46:00,45.3,39.8,30.00,SSE,158,0.0,0.0,81,0.00,,CLR,0.02,VWS V12.08,2013-10-20 10:46:00,
2013-10-20 06:51:00,45.3,39.8,30.00,SSE,158,0.0,0.0,81,0.00,,CLR,0.02,VWS V12.08,2013-10-20 10:51:00,
2013-10-20 06:56:00,45.3,39.8,30.01,SSE,158,0.0,0.0,81,0.00,,CLR,0.02,VWS V12.08,2013-10-20 10:56:00,
2013-10-20 07:01:00,45.1,39.7,30.01,SSE,158,0.0,0.0,81,0.00,,CLR,0.02,VWS V12.08,2013-10-20 11:01:00,
2013-10-20 07:06:00,45.1,39.7,30.00,SSE,158,0.0,0.0,81,0.00,,CLR,0.02,VWS V12.08,2013-10-20 11:06:00,
2013-10-20 07:11:00,45.0,39.5,30.00,SSE,158,0.0,0.0,81,0.00,,CLR,0.02,VWS V12.08,2013-10-20 11:11:00,
2013-10-20 07:16:00,45.0,39.5,30.01,SSE,158,0.0,0.0,81,0.00,,CLR,0.02,VWS V12.08,2013-10-20 11:16:00,
2013-10-20 07:21:00,45.0,39.5,30.01,ESE,112,0.0,0.0,81,0.00,,CLR,0.02,VWS V12.08,2013-10-20 11:21:00,
2013-10-20 07:26:00,44.8,39.3,30.01,ESE,112,0.0,0.0,81,0.00,,CLR,0.02,VWS V12.08,2013-10-20 11:26:00,
2013-10-20 07:31:00,44.6,39.1,30.01,ESE,112,0.0,0.0,81,0.00,,CLR,0.02,VWS V12.08,2013-10-20 11:31:00,
2013-10-20 07:36:00,44.6,39.1,30.01,ESE,112,0.0,0.0,81,0.00,,CLR,0.02,VWS V12.08,2013-10-20 11:36:00,
2013-10-20 07:41:00,44.6,39.1,30.01,ESE,112,0.0,0.0,81,0.00,,CLR,0.02,VWS V12.08,2013-10-20 11:41:00,
2013-10-20 07:46:00,44.4,39.0,30.01,ESE,112,0.0,0.0,81,0.00,,CLR,0.02,VWS V12.08,2013-10-20 11:46:00,
2013-10-20 07:51:00,44.4,39.0,30.01,ESE,112,0.0,0.0,81,0.00,,CLR,0.02,VWS V12.08,2013-10-20 11:51:00,
2013-10-20 07:56:00,44.2,38.8,30.01,ESE,112,0.0,0.0,81,0.00,,CLR,0.02,VWS V12.08,2013-10-20 11:56:00,
2013-10-20 08:01:00,44.2,38.8,30.02,ESE,112,0.0,0.0,81,0.00,,CLR,0.02,VWS V12.08,2013-10-20 12:01:00,
2013-10-20 08:06:00,44.1,38.6,30.01,ESE,112,0.0,0.0,81,0.00,,CLR,0.02,VWS V12.08,2013-10-20 12:06:00,
2013-10-20 08:11:00,43.9,38.8,30.02,ESE,112,0.0,0.0,82,0.00,,CLR,0.02,VWS V12.08,2013-10-20 12:11:00,
2013-10-20 08:16:00,43.9,38.8,30.02,ESE,112,0.0,0.0,82,0.00,,CLR,0.02,VWS V12.08,2013-10-20 12:16:00,
2013-10-20 08:21:00,43.9,38.8,30.02,ESE,112,0.0,0.0,82,0.00,,CLR,0.02,VWS V12.08,2013-10-20 12:21:00,
2013-10-20 08:26:00,43.9,38.8,30.02,ESE,112,0.0,0.0,82,0.00,,CLR,0.02,VWS V12.08,2013-10-20 12:26:00,
2013-10-20 08:31:00,44.1,38.9,30.03,ESE,112,0.0,0.0,82,0.00,,CLR,0.02,VWS V12.08,2013-10-20 12:31:00,
2013-10-20 08:36:00,44.2,39.1,30.03,ESE,112,0.0,0.0,82,0.00,,CLR,0.02,VWS V12.08,2013-10-20 12:36:00,
2013-10-20 08:41:00,44.2,39.1,30.03,ESE,112,0.0,0.0,82,0.00,,CLR,0.02,VWS V12.08,2013-10-20 12:41:00,
2013-10-20 08:46:00,44.4,39.3,30.03,ESE,112,0.0,0.0,82,0.00,,CLR,0.02,VWS V12.08,2013-10-20 12:46:00,
2013-10-20 08:51:00,44.8,39.6,30.03,ESE,112,0.0,0.0,82,0.00,,CLR,0.02,VWS V12.08,2013-10-20 12:51:00,
2013-10-20 08:56:00,45.0,39.8,30.04,ESE,112,0.0,0.0,82,0.00,,CLR,0.02,VWS V12.08,2013-10-20 12:56:00,
2013-10-20 09:01:00,45.0,39.8,30.04,ESE,112,0.0,0.0,82,0.00,,CLR,0.02,VWS V12.08,2013-10-20 13:01:00,
2013-10-20 09:06:00,45.1,40.0,30.04,ESE,112,0.0,0.0,82,0.00,,CLR,0.02,VWS V12.08,2013-10-20 13:06:00,
2013-10-20 09:11:00,45.3,40.2,30.04,ESE,112,0.0,0.0,82,0.00,,CLR,0.02,VWS V12.08,2013-10-20 13:11:00,
2013-10-20 09:16:00,45.7,40.5,30.04,ESE,112,0.0,0.0,82,0.00,,CLR,0.02,VWS V12.08,2013-10-20 13:16:00,
2013-10-20 09:21:00,46.0,40.9,30.05,ESE,112,0.0,0.0,82,0.00,,CLR,0.02,VWS V12.08,2013-10-20 13:21:00,
2013-10-20 09:26:00,46.0,40.9,30.05,ESE,112,0.0,0.0,82,0.00,,CLR,0.02,VWS V12.08,2013-10-20 13:26:00,
2013-10-20 09:31:00,46.2,39.8,30.05,ESE,112,0.0,0.0,78,0.00,,CLR,0.02,VWS V12.08,2013-10-20 13:31:00,
2013-10-20 09:36:00,46.8,39.9,30.06,NW,315,0.0,0.0,77,0.00,,CLR,0.02,VWS V12.08,2013-10-20 13:36:00,
2013-10-20 09:41:00,47.1,40.6,30.06,NW,315,0.0,0.0,78,0.00,,CLR,0.02,VWS V12.08,2013-10-20 13:41:00,
2013-10-20 09:46:00,47.5,41.0,30.06,NW,315,0.0,0.0,78,0.00,,CLR,0.02,VWS V12.08,2013-10-20 13:46:00,
2013-10-20 09:51:00,47.7,40.8,30.05,NW,315,0.0,0.0,77,0.00,,CLR,0.02,VWS V12.08,2013-10-20 13:51:00,
2013-10-20 09:56:00,48.0,41.2,30.06,NW,315,0.0,0.0,77,0.00,,CLR,0.02,VWS V12.08,2013-10-20 13:56:00,
2013-10-20 10:01:00,48.0,40.5,30.06,NW,315,0.0,0.0,75,0.00,,CLR,0.02,VWS V12.08,2013-10-20 14:01:00,
2013-10-20 10:06:00,48.4,40.8,30.06,NNW,338,0.0,0.0,75,0.00,,CLR,0.02,VWS V12.08,2013-10-20 14:06:00,
2013-10-20 10:11:00,48.7,41.2,30.06,NNW,338,0.0,0.0,75,0.00,,CLR,0.02,VWS V12.08,2013-10-20 14:11:00,
2013-10-20 10:16:00,48.9,41.0,30.06,NNW,338,0.0,0.0,74,0.00,,CLR,0.02,VWS V12.08,2013-10-20 14:16:00,
2013-10-20 10:21:00,49.3,41.0,30.06,NNW,338,0.0,0.0,73,0.00,,CLR,0.02,VWS V12.08,2013-10-20 14:21:00,
2013-10-20 10:26:00,49.3,41.0,30.06,NW,315,0.0,0.0,73,0.00,,CLR,0.02,VWS V12.08,2013-10-20 14:26:00,
2013-10-20 10:31:00,49.8,41.2,30.06,North,0,0.0,0.0,72,0.00,,CLR,0.02,VWS V12.08,2013-10-20 14:31:00,
2013-10-20 10:36:00,49.8,40.8,30.06,North,0,0.0,0.0,71,0.00,,CLR,0.02,VWS V12.08,2013-10-20 14:36:00,
2013-10-20 10:41:00,50.4,41.7,30.06,North,0,0.0,0.0,72,0.00,,CLR,0.02,VWS V12.08,2013-10-20 14:41:00,
2013-10-20 10:46:00,50.5,41.9,30.06,North,0,0.0,0.0,72,0.00,,CLR,0.02,VWS V12.08,2013-10-20 14:46:00,
2013-10-20 10:51:00,50.9,42.2,30.07,North,0,0.0,0.0,72,0.00,,CLR,0.02,VWS V12.08,2013-10-20 14:51:00,
2013-10-20 10:56:00,51.3,41.8,30.07,North,0,0.0,0.0,70,0.00,,CLR,0.02,VWS V12.08,2013-10-20 14:56:00,
2013-10-20 11:01:00,51.4,42.0,30.07,WNW,292,0.0,0.0,70,0.00,,CLR,0.00,VWS V12.08,2013-10-20 15:01:00,
2013-10-20 11:06:00,51.6,42.2,30.07,NE,45,0.0,0.0,70,0.00,,CLR,0.00,VWS V12.08,2013-10-20 15:06:00,
2013-10-20 11:11:00,52.2,42.3,30.07,NW,315,0.0,0.0,69,0.00,,CLR,0.00,VWS V12.08,2013-10-20 15:11:00,
2013-10-20 11:16:00,52.5,42.3,30.07,NW,315,0.0,0.0,68,0.00,,CLR,0.00,VWS V12.08,2013-10-20 15:16:00,
2013-10-20 11:21:00,52.9,42.2,30.07,NNW,338,0.0,0.0,67,0.00,,CLR,0.00,VWS V12.08,2013-10-20 15:21:00,
2013-10-20 11:26:00,53.2,43.0,30.07,NW,315,0.0,0.0,68,0.00,,CLR,0.00,VWS V12.08,2013-10-20 15:26:00,
2013-10-20 11:31:00,53.4,43.1,30.07,North,0,0.0,2.0,68,0.00,,CLR,0.00,VWS V12.08,2013-10-20 15:31:00,
2013-10-20 11:36:00,54.0,44.0,30.07,NNE,22,0.0,2.0,69,0.00,,CLR,0.00,VWS V12.08,2013-10-20 15:36:00,
2013-10-20 11:41:00,54.3,43.6,30.07,North,0,0.0,0.0,67,0.00,,CLR,0.00,VWS V12.08,2013-10-20 15:41:00,
2013-10-20 11:46:00,54.7,44.0,30.07,NE,45,0.0,0.9,67,0.00,,CLR,0.00,VWS V12.08,2013-10-20 15:46:00,
2013-10-20 11:51:00,55.0,43.5,30.07,NW,315,0.7,1.1,65,0.00,,CLR,0.00,VWS V12.08,2013-10-20 15:51:00,
2013-10-20 11:56:00,55.4,43.8,30.07,NNW,338,0.0,1.8,65,0.00,,CLR,0.00,VWS V12.08,2013-10-20 15:56:00,
2013-10-20 12:01:00,55.8,43.8,30.07,WNW,292,0.0,0.0,64,0.00,,CLR,0.00,VWS V12.08,2013-10-20 16:01:00,
2013-10-20 12:06:00,56.3,44.7,30.06,NNE,22,0.0,0.0,65,0.00,,CLR,0.00,VWS V12.08,2013-10-20 16:06:00,
2013-10-20 12:11:00,56.7,44.2,30.06,WNW,292,0.0,0.0,63,0.00,,CLR,0.00,VWS V12.08,2013-10-20 16:11:00,
2013-10-20 12:16:00,57.0,44.6,30.06,WNW,292,0.0,1.8,63,0.00,,CLR,0.00,VWS V12.08,2013-10-20 16:16:00,
2013-10-20 12:21:00,57.6,45.1,30.06,NNW,338,0.0,0.0,63,0.00,,CLR,0.00,VWS V12.08,2013-10-20 16:21:00,
2013-10-20 12:26:00,57.7,45.2,30.06,SE,135,0.0,0.0,63,0.00,,CLR,0.00,VWS V12.08,2013-10-20 16:26:00,
2013-10-20 12:31:00,57.9,45.8,30.06,ESE,112,0.0,0.0,64,0.00,,CLR,0.00,VWS V12.08,2013-10-20 16:31:00,
2013-10-20 12:36:00,58.5,45.1,30.06,NW,315,0.0,2.2,61,0.00,,CLR,0.00,VWS V12.08,2013-10-20 16:36:00,
2013-10-20 12:40:00,58.6,44.8,30.06,North,0,0.0,2.2,60,0.00,,CLR,0.00,VWS V12.08,2013-10-20 16:40:00,
2013-10-20 12:45:00,58.8,45.4,30.06,ENE,68,0.0,0.4,61,0.00,,CLR,0.00,VWS V12.08,2013-10-20 16:45:00,
2013-10-20 12:50:00,58.8,45.0,30.06,NNW,338,0.0,2.0,60,0.00,,CLR,0.00,VWS V12.08,2013-10-20 16:50:00,
2013-10-20 12:55:00,58.8,45.0,30.06,NNE,22,0.0,2.0,60,0.00,,CLR,0.00,VWS V12.08,2013-10-20 16:55:00,
2013-10-20 13:00:00,59.4,45.0,30.06,NW,315,0.0,5.1,59,0.00,,CLR,0.00,VWS V12.08,2013-10-20 17:00:00,
2013-10-20 13:05:00,59.7,45.8,30.06,WNW,292,0.0,1.3,60,0.00,,CLR,0.00,VWS V12.08,2013-10-20 17:05:00,
2013-10-20 13:10:00,60.4,46.1,30.06,SE,135,0.0,1.3,59,0.00,,CLR,0.00,VWS V12.08,2013-10-20 17:10:00,
2013-10-20 13:15:00,60.6,45.3,30.05,East,90,0.0,1.3,57,0.00,,CLR,0.00,VWS V12.08,2013-10-20 17:15:00,
2013-10-20 13:20:00,61.2,46.7,30.05,SW,225,0.0,0.0,59,0.00,,CLR,0.00,VWS V12.08,2013-10-20 17:20:00,
2013-10-20 13:25:00,61.5,46.2,30.05,NE,45,0.0,1.6,57,0.00,,CLR,0.00,VWS V12.08,2013-10-20 17:25:00,
2013-10-20 13:30:00,61.9,45.5,30.04,NE,45,0.0,1.6,55,0.00,,CLR,0.00,VWS V12.08,2013-10-20 17:30:00,
2013-10-20 13:35:00,62.2,44.9,30.04,NW,315,0.0,1.6,53,0.00,,CLR,0.00,VWS V12.08,2013-10-20 17:35:00,
2013-10-20 13:40:00,62.2,45.4,30.04,NE,45,0.0,0.0,54,0.00,,CLR,0.00,VWS V12.08,2013-10-20 17:40:00,
2013-10-20 13:45:00,62.4,45.6,30.04,WSW,248,0.0,2.5,54,0.00,,CLR,0.00,VWS V12.08,2013-10-20 17:45:00,
2013-10-20 13:50:00,62.4,44.6,30.04,ENE,68,0.0,2.5,52,0.00,,CLR,0.00,VWS V12.08,2013-10-20 17:50:00,
2013-10-20 13:55:00,62.6,45.2,30.03,NE,45,0.0,2.5,53,0.00,,CLR,0.00,VWS V12.08,2013-10-20 17:55:00,
2013-10-20 14:00:00,62.8,45.4,30.03,ENE,68,0.0,2.5,53,0.00,,CLR,0.00,VWS V12.08,2013-10-20 18:00:00,
2013-10-20 14:05:00,63.1,44.7,30.03,SSW,202,0.0,3.6,51,0.00,,CLR,0.00,VWS V12.08,2013-10-20 18:05:00,
2013-10-20 14:10:00,63.3,45.4,30.03,SW,225,0.0,3.6,52,0.00,,CLR,0.00,VWS V12.08,2013-10-20 18:10:00,
2013-10-20 14:15:00,63.5,46.6,30.03,SE,135,2.0,3.6,54,0.00,,CLR,0.00,VWS V12.08,2013-10-20 18:15:00,
2013-10-20 14:20:00,63.7,46.7,30.03,SSW,202,0.0,0.0,54,0.00,,CLR,0.00,VWS V12.08,2013-10-20 18:20:00,
2013-10-20 14:25:00,63.7,46.7,30.03,SSW,202,0.0,1.1,54,0.00,,CLR,0.00,VWS V12.08,2013-10-20 18:25:00,
2013-10-20 14:30:00,63.9,46.4,30.02,ENE,68,0.0,1.1,53,0.00,,CLR,0.00,VWS V12.08,2013-10-20 18:30:00,
2013-10-20 14:35:00,64.0,47.1,30.02,NNE,22,1.1,2.0,54,0.00,,CLR,0.00,VWS V12.08,2013-10-20 18:35:00,
2013-10-20 14:40:00,64.0,45.6,30.02,West,270,0.0,0.0,51,0.00,,CLR,0.00,VWS V12.08,2013-10-20 18:40:00,
2013-10-20 14:45:00,64.0,46.6,30.01,West,270,0.0,0.0,53,0.00,,CLR,0.00,VWS V12.08,2013-10-20 18:45:00,
2013-10-20 14:50:00,64.0,46.1,30.01,West,270,0.0,2.2,52,0.00,,CLR,0.00,VWS V12.08,2013-10-20 18:50:00,
2013-10-20 14:55:00,64.0,47.1,30.01,ESE,112,0.0,2.2,54,0.00,,CLR,0.00,VWS V12.08,2013-10-20 18:55:00,
2013-10-20 15:00:00,64.2,47.2,30.01,ENE,68,0.0,2.2,54,0.00,,CLR,0.00,VWS V12.08,2013-10-20 19:00:00,
2013-10-20 15:05:00,64.4,47.9,30.01,SSE,158,0.0,0.0,55,0.00,,CLR,0.00,VWS V12.08,2013-10-20 19:05:00,
2013-10-20 15:10:00,64.8,47.8,30.02,ENE,68,0.0,2.5,54,0.00,,CLR,0.00,VWS V12.08,2013-10-20 19:10:00,
2013-10-20 15:15:00,64.8,47.8,30.01,North,0,0.0,2.5,54,0.00,,CLR,0.00,VWS V12.08,2013-10-20 19:15:00,
2013-10-20 15:20:00,64.6,47.6,30.02,East,90,1.1,1.1,54,0.00,,CLR,0.00,VWS V12.08,2013-10-20 19:20:00,
2013-10-20 15:25:00,64.6,47.6,30.02,East,90,0.0,1.3,54,0.00,,CLR,0.00,VWS V12.08,2013-10-20 19:25:00,
2013-10-20 15:30:00,64.2,47.2,30.02,South,180,0.0,1.3,54,0.00,,CLR,0.00,VWS V12.08,2013-10-20 19:30:00,
2013-10-20 15:35:00,64.2,47.2,30.02,ESE,112,0.0,1.3,54,0.00,,CLR,0.00,VWS V12.08,2013-10-20 19:35:00,
2013-10-20 15:40:00,64.2,47.2,30.02,ESE,112,0.0,0.0,54,0.00,,CLR,0.00,VWS V12.08,2013-10-20 19:40:00,
2013-10-20 15:45:00,64.2,47.2,30.02,ESE,112,0.0,0.0,54,0.00,,CLR,0.00,VWS V12.08,2013-10-20 19:45:00,
2013-10-20 15:50:00,64.2,47.7,30.01,ESE,112,0.0,0.0,55,0.00,,CLR,0.00,VWS V12.08,2013-10-20 19:50:00,
2013-10-20 15:55:00,64.2,47.7,30.01,ENE,68,0.0,0.0,55,0.00,,CLR,0.00,VWS V12.08,2013-10-20 19:55:00,
2013-10-20 16:00:00,64.2,47.2,30.02,NE,45,0.0,2.0,54,0.00,,CLR,0.00,VWS V12.08,2013-10-20 20:00:00,
2013-10-20 16:05:00,64.2,47.2,30.01,ENE,68,0.0,0.0,54,0.00,,CLR,0.00,VWS V12.08,2013-10-20 20:05:00,
2013-10-20 16:10:00,64.2,47.2,30.02,ESE,112,0.0,0.0,54,0.00,,CLR,0.00,VWS V12.08,2013-10-20 20:10:00,
2013-10-20 16:15:00,64.2,47.2,30.02,ENE,68,0.7,0.7,54,0.00,,CLR,0.00,VWS V12.08,2013-10-20 20:15:00,
2013-10-20 16:20:00,64.0,47.1,30.02,NE,45,0.0,0.0,54,0.00,,CLR,0.00,VWS V12.08,2013-10-20 20:20:00,
2013-10-20 16:25:00,64.0,47.1,30.01,ENE,68,0.0,1.3,54,0.00,,CLR,0.00,VWS V12.08,2013-10-20 20:25:00,
2013-10-20 16:30:00,64.0,47.1,30.02,SE,135,0.0,1.3,54,0.00,,CLR,0.00,VWS V12.08,2013-10-20 20:30:00,
2013-10-20 16:35:00,63.7,46.7,30.02,ENE,68,0.0,1.3,54,0.00,,CLR,0.00,VWS V12.08,2013-10-20 20:35:00,
2013-10-20 16:40:00,63.5,47.1,30.02,NNE,22,0.0,0.0,55,0.00,,CLR,0.00,VWS V12.08,2013-10-20 20:40:00,
2013-10-20 16:45:00,63.3,46.9,30.02,WNW,292,0.0,0.0,55,0.00,,CLR,0.00,VWS V12.08,2013-10-20 20:45:00,
2013-10-20 16:50:00,63.1,46.7,30.02,NE,45,0.0,0.7,55,0.00,,CLR,0.00,VWS V12.08,2013-10-20 20:50:00,
2013-10-20 16:55:00,63.0,46.6,30.02,NE,45,0.0,0.7,55,0.00,,CLR,0.00,VWS V12.08,2013-10-20 20:55:00,
2013-10-20 17:00:00,62.6,46.7,30.02,NE,45,0.0,0.7,56,0.00,,CLR,0.00,VWS V12.08,2013-10-20 21:00:00,
2013-10-20 17:05:00,62.4,47.0,30.01,NE,45,0.0,0.0,57,0.00,,CLR,0.00,VWS V12.08,2013-10-20 21:05:00,
2013-10-20 17:10:00,62.1,46.7,30.02,NE,45,0.0,0.0,57,0.00,,CLR,0.00,VWS V12.08,2013-10-20 21:10:00,
2013-10-20 17:15:00,61.9,46.5,30.02,NE,45,0.0,1.8,57,0.00,,CLR,0.00,VWS V12.08,2013-10-20 21:15:00,
2013-10-20 17:20:00,61.5,46.2,30.02,NE,45,0.0,0.0,57,0.00,,CLR,0.00,VWS V12.08,2013-10-20 21:20:00,
2013-10-20 17:25:00,61.3,46.5,30.02,ENE,68,0.0,0.0,58,0.00,,CLR,0.00,VWS V12.08,2013-10-20 21:25:00,
2013-10-20 17:30:00,61.2,46.3,30.02,ENE,68,0.0,0.0,58,0.00,,CLR,0.00,VWS V12.08,2013-10-20 21:30:00,
2013-10-20 17:35:00,60.6,46.2,30.02,ENE,68,0.0,0.0,59,0.00,,CLR,0.00,VWS V12.08,2013-10-20 21:35:00,
2013-10-20 17:40:00,60.4,46.5,30.02,ENE,68,0.0,0.0,60,0.00,,CLR,0.00,VWS V12.08,2013-10-20 21:40:00,
2013-10-20 17:45:00,60.1,46.6,30.02,ENE,68,0.0,0.0,61,0.00,,CLR,0.00,VWS V12.08,2013-10-20 21:45:00,
2013-10-20 17:50:00,60.1,47.0,30.02,ENE,68,0.0,0.0,62,0.00,,CLR,0.00,VWS V12.08,2013-10-20 21:50:00,
2013-10-20 17:55:00,59.9,46.9,30.02,ENE,68,0.0,0.0,62,0.00,,CLR,0.00,VWS V12.08,2013-10-20 21:55:00,
2013-10-20 18:00:00,59.2,46.2,30.02,ENE,68,0.0,0.0,62,0.00,,CLR,0.00,VWS V12.08,2013-10-20 22:00:00,
2013-10-20 18:05:00,58.8,46.7,30.02,ENE,68,0.0,0.0,64,0.00,,CLR,0.00,VWS V12.08,2013-10-20 22:05:00,
2013-10-20 18:10:00,58.8,46.7,30.02,ENE,68,0.0,0.0,64,0.00,,CLR,0.00,VWS V12.08,2013-10-20 22:10:00,
2013-10-20 18:15:00,58.5,46.8,30.03,ENE,68,0.0,0.0,65,0.00,,CLR,0.00,VWS V12.08,2013-10-20 22:15:00,
2013-10-20 18:20:00,58.3,47.0,30.03,ENE,68,0.0,0.0,66,0.00,,CLR,0.00,VWS V12.08,2013-10-20 22:20:00,
2013-10-20 18:25:00,57.6,46.7,30.03,ENE,68,0.0,0.0,67,0.00,,CLR,0.00,VWS V12.08,2013-10-20 22:25:00,
2013-10-20 18:30:00,57.4,46.5,30.03,ENE,68,0.0,0.0,67,0.00,,CLR,0.00,VWS V12.08,2013-10-20 22:30:00,
2013-10-20 18:35:00,57.0,46.6,30.03,ENE,68,0.0,0.0,68,0.00,,CLR,0.00,VWS V12.08,2013-10-20 22:35:00,
2013-10-20 18:40:00,56.8,46.4,30.03,ENE,68,0.0,0.0,68,0.00,,CLR,0.00,VWS V12.08,2013-10-20 22:40:00,
2013-10-20 18:45:00,56.5,46.5,30.03,ENE,68,0.0,0.0,69,0.00,,CLR,0.00,VWS V12.08,2013-10-20 22:45:00,
2013-10-20 18:50:00,56.1,46.1,30.04,ENE,68,0.0,0.0,69,0.00,,CLR,0.00,VWS V12.08,2013-10-20 22:50:00,
2013-10-20 18:55:00,55.9,45.9,30.04,ENE,68,0.0,0.0,69,0.00,,CLR,0.00,VWS V12.08,2013-10-20 22:55:00,
2013-10-20 19:00:00,55.2,45.6,30.04,ENE,68,0.0,0.0,70,0.00,,CLR,0.00,VWS V12.08,2013-10-20 23:00:00,
2013-10-20 19:05:00,55.2,45.6,30.04,ENE,68,0.0,0.0,70,0.00,,CLR,0.00,VWS V12.08,2013-10-20 23:05:00,
2013-10-20 19:10:00,54.5,45.3,30.04,ENE,68,0.0,0.0,71,0.00,,CLR,0.00,VWS V12.08,2013-10-20 23:10:00,
2013-10-20 19:15:00,54.1,45.3,30.04,ENE,68,0.0,0.0,72,0.00,,CLR,0.00,VWS V12.08,2013-10-20 23:15:00,
2013-10-20 19:20:00,53.8,45.0,30.04,ENE,68,0.0,0.0,72,0.00,,CLR,0.00,VWS V12.08,2013-10-20 23:20:00,
2013-10-20 19:25:00,53.4,45.0,30.04,ENE,68,0.0,0.0,73,0.00,,CLR,0.00,VWS V12.08,2013-10-20 23:25:00,
2013-10-20 19:30:00,53.4,45.0,30.05,ENE,68,0.0,0.0,73,0.00,,CLR,0.00,VWS V12.08,2013-10-20 23:30:00,
2013-10-20 19:35:00,53.4,45.0,30.04,ENE,68,0.0,0.0,73,0.00,,CLR,0.00,VWS V12.08,2013-10-20 23:35:00,
2013-10-20 19:40:00,52.9,44.5,30.05,ENE,68,0.0,0.0,73,0.00,,CLR,0.00,VWS V12.08,2013-10-20 23:40:00,
2013-10-20 19:45:00,52.7,44.3,30.05,ENE,68,0.0,0.0,73,0.00,,CLR,0.00,VWS V12.08,2013-10-20 23:45:00,
2013-10-20 19:50:00,52.3,44.0,30.05,ENE,68,0.0,0.0,73,0.00,,CLR,0.00,VWS V12.08,2013-10-20 23:50:00,
2013-10-20 19:55:00,52.2,43.8,30.05,ENE,68,0.0,0.0,73,0.00,,CLR,0.00,VWS V12.08,2013-10-20 23:55:00,
2013-10-20 20:00:00,52.2,44.1,30.06,ENE,68,0.0,0.0,74,0.00,,CLR,0.00,VWS V12.08,2013-10-21 00:00:00,
2013-10-20 20:05:00,52.0,44.0,30.06,ENE,68,0.0,0.0,74,0.00,,CLR,0.00,VWS V12.08,2013-10-21 00:05:00,
2013-10-20 20:10:00,51.6,44.0,30.06,ENE,68,0.0,0.0,75,0.00,,CLR,0.00,VWS V12.08,2013-10-21 00:10:00,
2013-10-20 20:15:00,51.6,44.0,30.06,ENE,68,0.0,0.0,75,0.00,,CLR,0.00,VWS V12.08,2013-10-21 00:15:00,
2013-10-20 20:20:00,51.3,43.6,30.06,ENE,68,0.0,0.0,75,0.00,,CLR,0.00,VWS V12.08,2013-10-21 00:20:00,
2013-10-20 20:25:00,50.9,43.3,30.06,ENE,68,0.0,0.0,75,0.00,,CLR,0.00,VWS V12.08,2013-10-21 00:25:00,
2013-10-20 20:30:00,50.7,43.1,30.06,ENE,68,0.0,0.0,75,0.00,,CLR,0.00,VWS V12.08,2013-10-21 00:30:00,
2013-10-20 20:35:00,50.5,42.9,30.06,ENE,68,0.0,0.0,75,0.00,,CLR,0.00,VWS V12.08,2013-10-21 00:35:00,
2013-10-20 20:40:00,50.2,42.9,30.06,ENE,68,0.0,0.0,76,0.00,,CLR,0.00,VWS V12.08,2013-10-21 00:40:00,
2013-10-20 20:45:00,50.0,42.7,30.06,ENE,68,0.0,0.0,76,0.00,,CLR,0.00,VWS V12.08,2013-10-21 00:45:00,
2013-10-20 20:50:00,49.8,42.6,30.06,ENE,68,0.0,0.0,76,0.00,,CLR,0.00,VWS V12.08,2013-10-21 00:50:00,
2013-10-20 20:55:00,49.6,42.4,30.07,ENE,68,0.0,0.0,76,0.00,,CLR,0.00,VWS V12.08,2013-10-21 00:55:00,
2013-10-20 21:00:00,49.6,42.4,30.07,ENE,68,0.0,0.0,76,0.00,,CLR,0.00,VWS V12.08,2013-10-21 01:00:00,
2013-10-20 21:05:00,49.5,42.2,30.07,ENE,68,0.0,0.0,76,0.00,,CLR,0.00,VWS V12.08,2013-10-21 01:05:00,
2013-10-20 21:10:00,49.3,42.4,30.07,ENE,68,0.0,0.0,77,0.00,,CLR,0.00,VWS V12.08,2013-10-21 01:10:00,
2013-10-20 21:15:00,49.3,42.4,30.06,ENE,68,0.0,0.0,77,0.00,,CLR,0.00,VWS V12.08,2013-10-21 01:15:00,
2013-10-20 21:20:00,49.3,42.4,30.07,ENE,68,0.0,0.0,77,0.00,,CLR,0.00,VWS V12.08,2013-10-21 01:20:00,
2013-10-20 21:25:00,49.3,42.7,30.07,ENE,68,0.0,0.0,78,0.00,,CLR,0.00,VWS V12.08,2013-10-21 01:25:00,
2013-10-20 21:30:00,49.1,42.5,30.07,NE,45,0.0,0.0,78,0.00,,CLR,0.00,VWS V12.08,2013-10-21 01:30:00,
2013-10-20 21:35:00,48.9,42.0,30.07,ENE,68,0.0,0.0,77,0.00,,CLR,0.00,VWS V12.08,2013-10-21 01:35:00,
2013-10-20 21:40:00,48.9,42.0,30.08,ENE,68,0.0,0.0,77,0.00,,CLR,0.00,VWS V12.08,2013-10-21 01:40:00,
2013-10-20 21:45:00,48.6,41.7,30.07,NE,45,0.0,0.0,77,0.00,,CLR,0.00,VWS V12.08,2013-10-21 01:45:00,
2013-10-20 21:50:00,48.4,41.5,30.08,NE,45,0.0,0.0,77,0.00,,CLR,0.00,VWS V12.08,2013-10-21 01:50:00,
2013-10-20 21:55:00,48.0,41.5,30.09,NE,45,0.0,0.0,78,0.00,,CLR,0.00,VWS V12.08,2013-10-21 01:55:00,
2013-10-20 22:00:00,48.0,41.5,30.08,NE,45,0.0,0.0,78,0.00,,CLR,0.00,VWS V12.08,2013-10-21 02:00:00,
2013-10-20 22:05:00,47.8,41.3,30.08,NE,45,0.0,0.0,78,0.00,,CLR,0.00,VWS V12.08,2013-10-21 02:05:00,
2013-10-20 22:10:00,47.7,41.2,30.08,NE,45,0.0,0.0,78,0.00,,CLR,0.00,VWS V12.08,2013-10-21 02:10:00,
2013-10-20 22:15:00,47.5,41.3,30.09,NE,45,0.0,0.0,79,0.00,,CLR,0.00,VWS V12.08,2013-10-21 02:15:00,
2013-10-20 22:20:00,47.5,41.3,30.09,NE,45,0.0,0.0,79,0.00,,CLR,0.00,VWS V12.08,2013-10-21 02:20:00,
2013-10-20 22:25:00,47.5,41.3,30.09,NE,45,0.0,0.0,79,0.00,,CLR,0.00,VWS V12.08,2013-10-21 02:25:00,
2013-10-20 22:30:00,47.5,41.3,30.09,ENE,68,0.0,0.0,79,0.00,,CLR,0.00,VWS V12.08,2013-10-21 02:30:00,
2013-10-20 22:35:00,47.5,41.3,30.09,ENE,68,0.0,0.0,79,0.00,,CLR,0.00,VWS V12.08,2013-10-21 02:35:00,
2013-10-20 22:40:00,47.5,41.3,30.09,ENE,68,0.0,0.0,79,0.00,,CLR,0.00,VWS V12.08,2013-10-21 02:40:00,
2013-10-20 22:45:00,47.5,41.3,30.09,ENE,68,0.0,0.0,79,0.00,,CLR,0.00,VWS V12.08,2013-10-21 02:45:00,
2013-10-20 22:50:00,47.5,41.6,30.09,ENE,68,0.0,0.0,80,0.00,,CLR,0.00,VWS V12.08,2013-10-21 02:50:00,
2013-10-20 22:55:00,47.3,41.5,30.09,ENE,68,0.0,0.0,80,0.00,,CLR,0.00,VWS V12.08,2013-10-21 02:55:00,
2013-10-20 23:00:00,47.3,41.5,30.09,ENE,68,0.0,0.0,80,0.00,,CLR,0.00,VWS V12.08,2013-10-21 03:00:00,
2013-10-20 23:05:00,47.3,41.5,30.09,ENE,68,0.0,0.0,80,0.00,,CLR,0.00,VWS V12.08,2013-10-21 03:05:00,
2013-10-20 23:10:00,46.9,41.1,30.09,ENE,68,0.0,0.0,80,0.00,,CLR,0.00,VWS V12.08,2013-10-21 03:10:00,
2013-10-20 23:15:00,46.9,41.1,30.09,ENE,68,0.0,0.0,80,0.00,,CLR,0.00,VWS V12.08,2013-10-21 03:15:00,
2013-10-20 23:20:00,46.9,41.1,30.09,ENE,68,0.0,0.0,80,0.00,,CLR,0.00,VWS V12.08,2013-10-21 03:20:00,
2013-10-20 23:25:00,46.6,40.8,30.09,ENE,68,0.0,0.0,80,0.00,,CLR,0.00,VWS V12.08,2013-10-21 03:25:00,
2013-10-20 23:30:00,46.4,40.6,30.09,ENE,68,0.0,0.0,80,0.00,,CLR,0.00,VWS V12.08,2013-10-21 03:30:00,
2013-10-20 23:35:00,46.4,40.6,30.09,ENE,68,0.0,0.0,80,0.00,,CLR,0.00,VWS V12.08,2013-10-21 03:35:00,
2013-10-20 23:40:00,46.2,40.4,30.09,ENE,68,0.0,0.0,80,0.00,,CLR,0.00,VWS V12.08,2013-10-21 03:40:00,
2013-10-20 23:45:00,46.2,40.4,30.09,ENE,68,0.0,0.0,80,0.00,,CLR,0.00,VWS V12.08,2013-10-21 03:45:00,
2013-10-20 23:50:00,46.2,40.4,30.09,ENE,68,0.0,0.0,80,0.00,,CLR,0.00,VWS V12.08,2013-10-21 03:50:00,
2013-10-20 23:55:00,45.7,39.9,30.09,ENE,68,0.0,0.0,80,0.00,,CLR,0.00,VWS V12.08,2013-10-21 03:55:00,